createdAt,value
2018-05-26T00:02:06.429Z,4.30
2018-05-26T00:04:34.896Z,4.67
2018-05-26T00:07:03.400Z,4.90
2018-05-26T00:09:31.888Z,4.57
2018-05-26T00:12:00.384Z,4.47
2018-05-26T00:14:28.909Z,4.00
2018-05-26T00:16:57.400Z,4.07
2018-05-26T00:19:25.900Z,4.03
2018-05-26T00:21:54.403Z,4.17
2018-05-26T00:24:22.914Z,4.03
2018-05-26T00:26:51.377Z,4.00
2018-05-26T00:29:19.906Z,4.00
2018-05-26T00:31:48.366Z,3.80
2018-05-26T00:34:16.868Z,3.93
2018-05-26T00:36:45.319Z,4.03
2018-05-26T00:39:13.763Z,4.30
2018-05-26T00:41:42.228Z,4.23
2018-05-26T00:44:10.668Z,3.80
2018-05-26T00:46:39.168Z,4.20
2018-05-26T00:49:07.645Z,3.90
2018-05-26T00:51:36.156Z,4.00
2018-05-26T00:54:04.657Z,3.70
2018-05-26T00:56:33.168Z,3.93
2018-05-26T00:59:01.652Z,3.70
2018-05-26T01:01:30.153Z,3.73
2018-05-26T01:03:58.618Z,4.10
2018-05-26T01:06:27.121Z,4.67
2018-05-26T01:08:55.620Z,4.60
2018-05-26T01:11:24.116Z,4.20
2018-05-26T01:13:53.228Z,4.43
2018-05-26T01:16:21.744Z,4.97
2018-05-26T01:18:50.210Z,5.33
2018-05-26T01:21:18.753Z,5.77
2018-05-26T01:23:47.224Z,5.67
2018-05-26T01:26:15.749Z,5.27
2018-05-26T01:28:44.248Z,5.53
2018-05-26T01:31:12.767Z,6.07
2018-05-26T01:33:41.276Z,6.73
2018-05-26T01:36:09.784Z,6.90
2018-05-26T01:38:38.284Z,6.80
2018-05-26T01:41:06.796Z,6.67
2018-05-26T01:43:35.260Z,5.90
2018-05-26T01:46:03.758Z,5.77
2018-05-26T01:48:32.281Z,6.23
2018-05-26T01:51:00.788Z,5.10
2018-05-26T01:53:29.288Z,5.77
2018-05-26T01:55:57.792Z,5.53
2018-05-26T01:58:26.256Z,5.50
2018-05-26T02:00:54.772Z,6.33
2018-05-26T02:03:23.300Z,6.30
2018-05-26T02:05:51.833Z,5.80
2018-05-26T02:08:20.323Z,6.13
2018-05-26T02:10:48.790Z,7.27
2018-05-26T02:13:17.304Z,7.57
2018-05-26T02:15:45.809Z,7.20
2018-05-26T02:18:14.324Z,7.73
2018-05-26T02:20:42.836Z,7.80
2018-05-26T02:23:11.309Z,7.47
2018-05-26T02:25:39.856Z,7.70
2018-05-26T02:28:08.322Z,7.77
2018-05-26T02:30:36.813Z,7.77
2018-05-26T02:33:05.329Z,7.30
2018-05-26T02:35:33.825Z,6.77
2018-05-26T02:38:02.322Z,7.07
2018-05-26T02:40:30.845Z,6.50
2018-05-26T02:42:59.348Z,7.00
2018-05-26T02:45:27.826Z,6.93
2018-05-26T02:47:56.336Z,7.23
2018-05-26T02:50:24.741Z,7.13
2018-05-26T02:52:53.256Z,7.20
2018-05-26T02:55:21.761Z,7.50
2018-05-26T02:57:50.238Z,7.63
2018-05-26T03:00:18.743Z,7.83
2018-05-26T03:02:47.253Z,7.00
2018-05-26T03:05:21.077Z,7.23
2018-05-26T03:07:55.184Z,7.23
2018-05-26T03:10:29.128Z,7.17
2018-05-26T03:13:03.032Z,6.40
2018-05-26T03:15:31.574Z,6.73
2018-05-26T03:18:00.941Z,6.87
2018-05-26T03:20:29.409Z,7.00
2018-05-26T03:22:57.877Z,6.63
2018-05-26T03:25:26.386Z,7.57
2018-05-26T03:27:54.868Z,8.03
2018-05-26T03:30:23.379Z,8.40
2018-05-26T03:32:51.893Z,7.70
2018-05-26T03:35:20.385Z,7.40
2018-05-26T03:37:48.888Z,7.43
2018-05-26T03:40:17.397Z,7.67
2018-05-26T03:42:45.865Z,6.80
2018-05-26T03:45:14.364Z,6.53
2018-05-26T03:47:42.837Z,6.00
2018-05-26T03:50:11.332Z,6.00
2018-05-26T03:52:39.857Z,5.67
2018-05-26T03:58:20.037Z,6.20
2018-05-26T04:00:48.523Z,5.40
2018-05-26T04:03:17.036Z,5.57
2018-05-26T04:05:45.689Z,5.80
2018-05-26T04:08:14.277Z,5.60
2018-05-26T04:10:42.788Z,6.60
2018-05-26T04:13:11.341Z,6.23
2018-05-26T04:15:40.030Z,5.80
2018-05-26T04:18:08.540Z,6.00
2018-05-26T04:20:37.009Z,6.13
2018-05-26T04:23:05.520Z,6.57
2018-05-26T04:25:33.994Z,5.70
2018-05-26T04:28:02.512Z,5.80
2018-05-26T04:30:30.988Z,5.90
2018-05-26T04:32:59.496Z,5.93
2018-05-26T04:35:28.029Z,5.80
2018-05-26T04:37:56.503Z,5.83
2018-05-26T04:40:25.017Z,5.53
2018-05-26T04:42:53.494Z,5.40
2018-05-26T04:45:22.005Z,5.80
2018-05-26T04:47:50.481Z,5.33
2018-05-26T04:50:18.984Z,5.70
2018-05-26T04:52:47.469Z,5.23
2018-05-26T04:55:15.977Z,5.70
2018-05-26T04:57:44.444Z,5.37
2018-05-26T05:00:12.944Z,4.97
2018-05-26T05:02:41.411Z,5.53
2018-05-26T05:05:09.916Z,6.00
2018-05-26T05:07:38.409Z,5.50
2018-05-26T05:10:06.913Z,5.80
2018-05-26T05:12:35.385Z,5.93
2018-05-26T05:15:03.912Z,5.50
2018-05-26T05:17:32.396Z,4.93
2018-05-26T05:20:00.920Z,6.20
2018-05-26T05:22:29.433Z,5.63
2018-05-26T05:24:57.937Z,5.43
2018-05-26T05:27:26.404Z,5.73
2018-05-26T05:29:54.908Z,5.07
2018-05-26T05:32:23.398Z,5.53
2018-05-26T05:34:51.937Z,6.03
2018-05-26T05:37:20.409Z,5.60
2018-05-26T05:39:48.933Z,5.30
2018-05-26T05:42:17.447Z,5.67
2018-05-26T05:44:45.964Z,5.40
2018-05-26T05:47:14.431Z,5.30
2018-05-26T05:49:42.952Z,5.43
2018-05-26T05:52:11.420Z,5.60
2018-05-26T05:54:39.922Z,5.70
2018-05-26T05:57:08.400Z,5.53
2018-05-26T05:59:36.884Z,5.00
2018-05-26T06:02:05.356Z,5.30
2018-05-26T06:04:33.905Z,5.43
2018-05-26T06:07:02.400Z,4.77
2018-05-26T06:09:30.900Z,4.63
2018-05-26T06:11:59.368Z,4.63
2018-05-26T06:14:27.898Z,4.60
2018-05-26T06:16:56.373Z,4.90
2018-05-26T06:19:24.840Z,5.17
2018-05-26T06:21:53.353Z,4.60
2018-05-26T06:24:21.820Z,4.43
2018-05-26T06:26:50.328Z,5.63
2018-05-26T06:29:18.830Z,4.67
2018-05-26T06:31:47.362Z,5.10
2018-05-26T06:34:15.845Z,4.80
2018-05-26T06:36:44.367Z,5.20
2018-05-26T06:39:12.857Z,5.27
2018-05-26T06:41:41.378Z,5.50
2018-05-26T06:44:09.888Z,5.07
2018-05-26T06:46:38.357Z,4.80
2018-05-26T06:49:06.877Z,5.43
2018-05-26T06:51:35.385Z,4.77
2018-05-26T06:54:03.951Z,4.93
2018-05-26T06:56:32.440Z,4.87
2018-05-26T06:59:00.904Z,5.10
2018-05-26T07:01:29.414Z,4.70
2018-05-26T07:03:57.921Z,5.37
2018-05-26T07:06:26.468Z,5.00
2018-05-26T07:08:54.992Z,4.93
2018-05-26T07:11:23.469Z,5.37
2018-05-26T07:13:51.972Z,4.97
2018-05-26T07:16:20.484Z,5.33
2018-05-26T07:18:48.988Z,4.70
2018-05-26T07:21:17.467Z,5.53
2018-05-26T07:23:45.989Z,5.20
2018-05-26T07:26:14.500Z,5.97
2018-05-26T07:28:43.053Z,5.40
2018-05-26T07:31:11.532Z,5.10
2018-05-26T07:33:40.084Z,4.83
2018-05-26T07:36:08.540Z,5.20
2018-05-26T07:38:37.064Z,5.60
2018-05-26T07:41:05.548Z,5.40
2018-05-26T07:43:34.029Z,5.87
2018-05-26T07:46:02.538Z,5.40
2018-05-26T07:48:31.048Z,5.40
2018-05-26T07:50:59.520Z,5.40
2018-05-26T07:53:28.041Z,4.87
2018-05-26T07:55:56.516Z,5.23
2018-05-26T07:58:24.989Z,5.87
2018-05-26T08:00:53.519Z,5.77
2018-05-26T08:03:22.019Z,5.20
2018-05-26T08:05:50.520Z,4.97
2018-05-26T08:08:19.000Z,5.40
2018-05-26T08:10:47.518Z,4.90
2018-05-26T08:13:16.009Z,5.10
2018-05-26T08:15:44.513Z,4.70
2018-05-26T08:18:12.983Z,5.30
2018-05-26T08:20:41.497Z,6.53
2018-05-26T08:23:10.013Z,5.53
2018-05-26T08:25:38.506Z,5.73
2018-05-26T08:28:07.001Z,5.17
2018-05-26T08:30:35.521Z,4.87
2018-05-26T08:33:04.021Z,5.20
2018-05-26T08:35:32.496Z,5.57
2018-05-26T08:38:01.013Z,5.80
2018-05-26T08:40:29.525Z,5.03
2018-05-26T08:42:58.040Z,5.23
2018-05-26T08:45:26.529Z,6.47
2018-05-26T08:47:55.084Z,4.80
2018-05-26T08:50:23.548Z,5.07
2018-05-26T08:52:52.072Z,6.07
2018-05-26T08:55:20.537Z,5.27
2018-05-26T08:57:49.004Z,5.80
2018-05-26T09:00:17.520Z,5.40
2018-05-26T09:02:45.988Z,5.20
2018-05-26T09:05:14.491Z,5.70
2018-05-26T09:07:43.016Z,5.33
2018-05-26T09:10:11.549Z,5.47
2018-05-26T09:12:40.051Z,5.90
2018-05-26T09:15:08.533Z,5.00
2018-05-26T09:17:37.049Z,5.60
2018-05-26T09:20:05.572Z,5.40
2018-05-26T09:22:34.091Z,5.90
2018-05-26T09:25:02.653Z,5.27
2018-05-26T09:27:31.097Z,5.10
2018-05-26T09:29:59.595Z,6.10
2018-05-26T09:32:28.100Z,5.37
2018-05-26T09:34:56.568Z,5.43
2018-05-26T09:37:25.077Z,5.60
2018-05-26T09:39:53.554Z,5.17
2018-05-26T09:42:22.068Z,5.00
2018-05-26T09:44:50.541Z,6.93
2018-05-26T09:47:19.057Z,6.20
2018-05-26T09:49:47.572Z,6.03
2018-05-26T09:52:16.052Z,5.13
2018-05-26T09:54:44.566Z,5.43
2018-05-26T09:57:13.041Z,5.73
2018-05-26T09:59:41.540Z,5.47
2018-05-26T10:02:10.015Z,5.70
2018-05-26T10:04:38.498Z,5.40
2018-05-26T10:07:07.013Z,5.43
2018-05-26T10:09:35.477Z,4.87
2018-05-26T10:12:03.989Z,5.07
2018-05-26T10:14:32.505Z,4.83
2018-05-26T10:17:00.993Z,5.00
2018-05-26T10:19:29.505Z,5.37
2018-05-26T10:21:57.986Z,5.40
2018-05-26T10:24:26.510Z,5.20
2018-05-26T10:26:55.007Z,5.87
2018-05-26T10:29:23.520Z,6.73
2018-05-26T10:31:52.016Z,5.77
2018-05-26T10:34:20.542Z,6.93
2018-05-26T10:36:49.029Z,7.87
2018-05-26T10:39:17.521Z,7.67
2018-05-26T10:41:46.061Z,7.53
2018-05-26T10:44:14.519Z,6.00
2018-05-26T10:46:43.040Z,6.73
2018-05-26T10:49:11.549Z,6.60
2018-05-26T10:51:40.070Z,6.90
2018-05-26T10:54:08.524Z,6.63
2018-05-26T10:56:37.021Z,6.33
2018-05-26T10:59:05.514Z,6.30
2018-05-26T11:01:33.996Z,5.27
2018-05-26T11:04:02.453Z,5.90
2018-05-26T11:09:24.045Z,6.90
2018-05-26T11:11:52.642Z,5.60
2018-05-26T11:14:21.230Z,4.90
2018-05-26T11:16:49.701Z,5.07
2018-05-26T11:19:18.180Z,5.80
2018-05-26T11:21:46.774Z,6.30
2018-05-26T11:24:15.305Z,5.60
2018-05-26T11:26:43.777Z,5.70
2018-05-26T11:29:12.201Z,5.40
2018-05-26T11:31:40.658Z,6.03
2018-05-26T11:34:09.106Z,6.13
2018-05-26T11:36:37.592Z,6.50
2018-05-26T11:39:06.038Z,6.20
2018-05-26T11:41:34.523Z,9.80
2018-05-26T11:44:03.009Z,6.90
2018-05-26T11:46:31.493Z,6.60
2018-05-26T11:48:59.946Z,6.63
2018-05-26T11:51:28.424Z,6.07
2018-05-26T11:53:56.912Z,5.83
2018-05-26T11:56:25.367Z,6.17
2018-05-26T11:58:53.849Z,5.67
2018-05-26T12:01:22.301Z,6.77
2018-05-26T12:03:50.794Z,6.80
2018-05-26T12:06:19.242Z,7.07
2018-05-26T12:08:47.674Z,5.60
2018-05-26T12:11:16.152Z,5.17
2018-05-26T12:13:44.605Z,5.73
2018-05-26T12:16:13.148Z,5.53
2018-05-26T12:18:41.630Z,6.13
2018-05-26T12:21:10.127Z,5.63
2018-05-26T12:23:38.628Z,5.90
2018-05-26T12:26:07.117Z,5.53
2018-05-26T12:28:35.560Z,5.53
2018-05-26T12:31:04.044Z,5.80
2018-05-26T12:33:32.524Z,5.50
2018-05-26T12:36:00.976Z,6.17
2018-05-26T12:38:29.460Z,5.97
2018-05-26T12:40:57.909Z,5.80
2018-05-26T12:43:26.406Z,5.83
2018-05-26T12:45:54.865Z,5.63
2018-05-26T12:48:23.341Z,5.00
2018-05-26T12:50:51.794Z,5.13
2018-05-26T12:53:20.281Z,4.80
2018-05-26T12:55:48.741Z,5.17
2018-05-26T12:58:17.228Z,5.10
2018-05-26T13:00:45.683Z,5.07
2018-05-26T13:03:14.172Z,4.73
2018-05-26T13:05:42.668Z,4.50
2018-05-26T13:08:11.129Z,4.57
2018-05-26T13:10:39.618Z,4.83
2018-05-26T13:13:08.117Z,4.50
2018-05-26T13:15:36.545Z,4.63
2018-05-26T13:18:05.100Z,4.50
2018-05-26T13:20:33.544Z,4.63
2018-05-26T13:23:01.983Z,4.80
2018-05-26T13:25:30.457Z,4.67
2018-05-26T13:27:58.966Z,4.50
2018-05-26T13:30:27.430Z,4.73
2018-05-26T13:32:55.916Z,4.67
2018-05-26T13:35:24.376Z,4.20
2018-05-26T13:37:52.861Z,4.37
2018-05-26T13:40:21.316Z,4.23
2018-05-26T13:42:49.801Z,4.10
2018-05-26T13:45:18.314Z,3.97
2018-05-26T13:47:46.969Z,4.43
2018-05-26T13:50:15.486Z,4.40
2018-05-26T13:52:43.985Z,4.20
2018-05-26T13:55:12.537Z,4.73
2018-05-26T13:57:41.029Z,4.07
2018-05-26T14:00:09.519Z,4.00
2018-05-26T14:02:38.013Z,4.33
2018-05-26T14:05:06.529Z,4.40
2018-05-26T14:07:34.989Z,4.03
2018-05-26T14:10:03.600Z,4.33
2018-05-26T14:12:32.056Z,3.97
2018-05-26T14:15:00.568Z,4.07
2018-05-26T14:17:29.028Z,4.60
2018-05-26T14:19:57.483Z,4.80
2018-05-26T14:22:25.992Z,4.50
2018-05-26T14:24:54.464Z,4.70
2018-05-26T14:27:22.989Z,4.30
2018-05-26T14:29:51.460Z,4.93
2018-05-26T14:32:19.973Z,4.80
2018-05-26T14:34:48.452Z,4.67
2018-05-26T14:37:16.952Z,4.10
2018-05-26T14:39:45.416Z,3.83
2018-05-26T14:42:13.992Z,3.80
2018-05-26T14:44:42.439Z,4.17
2018-05-26T14:47:10.952Z,4.23
2018-05-26T14:49:39.426Z,4.43
2018-05-26T14:52:07.932Z,4.33
2018-05-26T14:54:36.410Z,4.83
2018-05-26T14:57:04.937Z,4.50
2018-05-26T14:59:33.457Z,4.10
2018-05-26T15:02:01.965Z,4.43
2018-05-26T15:04:30.441Z,4.37
2018-05-26T15:06:58.952Z,4.20
2018-05-26T15:09:27.433Z,4.40
2018-05-26T15:11:55.950Z,4.30
2018-05-26T15:14:24.432Z,3.90
2018-05-26T15:16:52.944Z,4.33
2018-05-26T15:19:21.438Z,4.63
2018-05-26T15:21:49.944Z,4.43
2018-05-26T15:24:18.448Z,4.33
2018-05-26T15:26:46.919Z,4.33
2018-05-26T15:29:15.432Z,4.87
2018-05-26T15:31:43.937Z,4.27
2018-05-26T15:34:12.460Z,4.90
2018-05-26T15:36:40.925Z,4.50
2018-05-26T15:39:09.393Z,4.67
2018-05-26T15:41:37.913Z,4.63
2018-05-26T15:44:06.368Z,4.40
2018-05-26T15:46:34.834Z,4.30
2018-05-26T15:49:03.341Z,4.67
2018-05-26T15:51:31.863Z,4.80
2018-05-26T15:54:00.345Z,4.37
2018-05-26T15:56:28.835Z,4.20
2018-05-26T15:58:57.315Z,4.40
2018-05-26T16:01:25.820Z,4.70
2018-05-26T16:03:54.309Z,4.20
2018-05-26T16:06:22.776Z,4.27
2018-05-26T16:08:51.292Z,4.30
2018-05-26T16:11:19.764Z,4.70
2018-05-26T16:13:48.272Z,4.67
2018-05-26T16:16:16.736Z,5.00
2018-05-26T16:18:45.256Z,4.37
2018-05-26T16:21:13.736Z,4.80
2018-05-26T16:23:42.242Z,4.43
2018-05-26T16:26:10.723Z,4.67
2018-05-26T16:28:39.225Z,5.07
2018-05-26T16:31:07.745Z,5.10
2018-05-26T16:33:36.221Z,5.13
2018-05-26T16:36:04.692Z,5.53
2018-05-26T16:38:33.200Z,5.03
2018-05-26T16:41:01.660Z,5.00
2018-05-26T16:43:30.205Z,5.33
2018-05-26T16:45:58.673Z,5.23
2018-05-26T16:48:27.196Z,5.17
2018-05-26T16:50:55.724Z,6.13
2018-05-26T16:53:24.237Z,5.77
2018-05-26T16:55:52.732Z,5.40
2018-05-26T16:58:21.208Z,5.67
2018-05-26T17:00:49.719Z,5.30
2018-05-26T17:03:18.201Z,4.77
2018-05-26T17:05:46.714Z,3.70
2018-05-26T17:08:15.206Z,3.87
2018-05-26T17:10:43.734Z,3.47
2018-05-26T17:13:12.234Z,3.53
2018-05-26T17:15:40.723Z,3.50
2018-05-26T17:18:09.210Z,3.80
2018-05-26T17:20:37.716Z,4.17
2018-05-26T17:23:06.201Z,3.90
2018-05-26T17:25:34.720Z,4.50
2018-05-26T17:28:03.200Z,4.13
2018-05-26T17:30:31.724Z,4.40
2018-05-26T17:33:00.244Z,4.20
2018-05-26T17:35:28.731Z,5.03
2018-05-26T17:37:57.252Z,5.03
2018-05-26T17:40:25.749Z,5.50
2018-05-26T17:42:54.288Z,4.90
2018-05-26T17:45:22.801Z,5.20
2018-05-26T17:47:51.281Z,4.40
2018-05-26T17:50:19.789Z,4.57
2018-05-26T17:52:48.273Z,4.10
2018-05-26T17:55:16.788Z,3.30
2018-05-26T17:57:45.304Z,3.33
2018-05-26T18:00:13.785Z,3.10
2018-05-26T18:02:42.260Z,3.07
2018-05-26T18:05:10.736Z,3.20
2018-05-26T18:07:39.266Z,3.30
2018-05-26T18:10:07.821Z,4.00
2018-05-26T18:12:36.333Z,4.10
2018-05-26T18:15:04.905Z,4.40
2018-05-26T18:17:33.465Z,5.30
2018-05-26T18:20:01.981Z,5.80
2018-05-26T18:22:30.507Z,6.13
2018-05-26T18:24:59.014Z,5.63
2018-05-26T18:27:27.524Z,6.00
2018-05-26T18:29:56.001Z,5.60
2018-05-26T18:32:24.521Z,6.10
2018-05-26T18:34:53.013Z,5.77
2018-05-26T18:37:21.533Z,5.60
2018-05-26T18:39:50.048Z,5.17
2018-05-26T18:42:18.564Z,5.33
2018-05-26T18:44:47.041Z,5.20
2018-05-26T18:47:15.577Z,5.80
2018-05-26T18:49:44.056Z,5.00
2018-05-26T18:52:12.572Z,5.10
2018-05-26T18:54:41.081Z,5.07
2018-05-26T18:57:09.601Z,4.80
2018-05-26T18:59:38.072Z,5.00
2018-05-26T19:02:06.585Z,4.90
2018-05-26T19:04:35.064Z,4.77
2018-05-26T19:07:03.629Z,4.77
2018-05-26T19:09:32.113Z,5.10
2018-05-26T19:12:00.627Z,4.90
2018-05-26T19:14:29.109Z,4.63
2018-05-26T19:16:57.625Z,5.03
2018-05-26T19:19:26.180Z,5.20
2018-05-26T19:21:54.652Z,5.20
2018-05-26T19:24:23.145Z,5.10
2018-05-26T19:26:51.659Z,5.00
2018-05-26T19:29:20.180Z,4.93
2018-05-26T19:31:48.723Z,5.47
2018-05-26T19:34:17.204Z,4.80
2018-05-26T19:36:45.676Z,5.43
2018-05-26T19:39:14.192Z,5.53
2018-05-26T19:41:42.677Z,5.97
2018-05-26T19:44:11.200Z,6.10
2018-05-26T19:46:39.730Z,7.07
2018-05-26T19:49:08.261Z,8.17
2018-05-26T19:51:36.749Z,8.50
2018-05-26T19:54:05.228Z,6.83
2018-05-26T19:56:33.776Z,7.07
2018-05-26T19:59:02.266Z,6.97
2018-05-26T20:01:30.805Z,6.60
2018-05-26T20:03:59.293Z,6.10
2018-05-26T20:06:27.817Z,7.27
2018-05-26T20:08:56.297Z,7.07
2018-05-26T20:11:24.808Z,7.20
2018-05-26T20:13:53.284Z,6.93
2018-05-26T20:16:21.798Z,7.10
2018-05-26T20:18:50.292Z,6.77
2018-05-26T20:21:18.816Z,6.80
2018-05-26T20:23:47.292Z,7.00
2018-05-26T20:26:15.768Z,6.93
2018-05-26T20:28:44.237Z,6.33
2018-05-26T20:31:12.724Z,6.43
2018-05-26T20:33:41.244Z,6.63
2018-05-26T20:36:09.760Z,7.87
2018-05-26T20:38:38.246Z,7.90
2018-05-26T20:41:06.773Z,8.53
2018-05-26T20:43:35.340Z,8.80
2018-05-26T20:46:03.813Z,9.57
2018-05-26T20:48:32.318Z,8.97
2018-05-26T20:51:00.832Z,8.57
2018-05-26T20:53:29.309Z,7.50
2018-05-26T20:55:57.830Z,6.30
2018-05-26T20:58:26.304Z,6.30
2018-05-26T21:00:54.805Z,6.33
2018-05-26T21:03:23.329Z,6.30
2018-05-26T21:05:51.805Z,5.63
2018-05-26T21:08:20.320Z,6.30
2018-05-26T21:10:48.801Z,6.27
2018-05-26T21:13:17.328Z,5.93
2018-05-26T21:15:45.815Z,6.10
2018-05-26T21:18:14.310Z,5.53
2018-05-26T21:20:42.845Z,5.80
2018-05-26T21:23:11.333Z,5.90
2018-05-26T21:25:39.856Z,6.37
2018-05-26T21:28:08.336Z,5.90
2018-05-26T21:30:36.853Z,5.80
2018-05-26T21:33:05.368Z,6.60
2018-05-26T21:35:33.895Z,6.60
2018-05-26T21:38:02.389Z,6.37
2018-05-26T21:40:30.916Z,6.53
2018-05-26T21:42:59.458Z,6.67
2018-05-26T21:45:27.976Z,6.53
2018-05-26T21:47:56.477Z,6.80
2018-05-26T21:50:24.984Z,7.10
2018-05-26T21:52:53.485Z,7.07
2018-05-26T21:55:21.986Z,6.57
2018-05-26T21:57:50.520Z,7.03
2018-05-26T22:00:19.005Z,7.63
2018-05-26T22:02:47.500Z,7.23
2018-05-26T22:05:15.991Z,6.87
2018-05-26T22:07:44.524Z,7.10
2018-05-26T22:10:13.070Z,7.30
2018-05-26T22:12:41.588Z,7.50
2018-05-26T22:15:10.113Z,7.77
2018-05-26T22:17:38.580Z,7.30
2018-05-26T22:20:07.120Z,7.77
2018-05-26T22:22:35.628Z,7.40
2018-05-26T22:25:04.145Z,7.60
2018-05-26T22:27:32.657Z,7.73
2018-05-26T22:30:01.178Z,7.37
2018-05-26T22:32:29.724Z,6.97
2018-05-26T22:34:58.227Z,7.60
2018-05-26T22:37:26.709Z,7.27
2018-05-26T22:39:55.229Z,7.17
2018-05-26T22:42:23.733Z,7.03
2018-05-26T22:44:52.247Z,6.87
2018-05-26T22:47:20.716Z,7.77
2018-05-26T22:49:49.241Z,8.03
2018-05-26T22:52:17.709Z,7.70
2018-05-26T22:54:46.212Z,8.67
2018-05-26T22:57:14.728Z,8.90
2018-05-26T22:59:43.212Z,8.50
2018-05-26T23:02:11.680Z,7.40
2018-05-26T23:04:40.197Z,8.13
2018-05-26T23:07:08.684Z,8.40
2018-05-26T23:09:37.196Z,8.03
2018-05-26T23:12:05.680Z,9.33
2018-05-26T23:14:34.244Z,8.97
2018-05-26T23:17:02.738Z,8.93
2018-05-26T23:19:31.253Z,8.60
2018-05-26T23:21:59.771Z,9.17
2018-05-26T23:24:28.273Z,8.80
2018-05-26T23:26:56.780Z,7.93
2018-05-26T23:29:25.261Z,9.10
2018-05-26T23:31:53.788Z,9.43
2018-05-26T23:34:22.304Z,9.63
2018-05-26T23:36:50.780Z,9.37
2018-05-26T23:39:19.260Z,9.40
2018-05-26T23:41:47.772Z,9.13
2018-05-26T23:44:16.304Z,10.03
2018-05-26T23:46:44.788Z,10.20
2018-05-26T23:49:13.268Z,10.20
2018-05-26T23:51:41.785Z,10.40
2018-05-26T23:54:10.273Z,10.63
2018-05-26T23:56:38.784Z,12.10
2018-05-26T23:59:07.293Z,11.63
